createdAt,value
2023-05-20T00:01:57.601Z,11.30
2023-05-20T00:04:24.977Z,11.20
2023-05-20T00:06:52.295Z,11.20
2023-05-20T00:09:19.609Z,11.10
2023-05-20T00:11:47.307Z,11.20
2023-05-20T00:14:14.652Z,11.10
2023-05-20T00:16:42.529Z,11.10
2023-05-20T00:19:09.867Z,11.10
2023-05-20T00:21:37.541Z,11.10
2023-05-20T00:24:04.878Z,11.00
2023-05-20T00:26:32.160Z,11.00
2023-05-20T00:28:59.396Z,11.00
2023-05-20T00:31:26.738Z,10.90
2023-05-20T00:33:53.963Z,10.90
2023-05-20T00:36:21.171Z,10.90
2023-05-20T00:38:48.382Z,10.90
2023-05-20T00:41:15.767Z,10.90
2023-05-20T00:43:43.020Z,10.90
2023-05-20T00:46:10.927Z,10.80
2023-05-20T00:48:43.697Z,10.80
2023-05-20T00:51:14.887Z,10.70
2023-05-20T00:53:43.047Z,10.70
2023-05-20T00:56:10.387Z,10.70
2023-05-20T00:58:39.403Z,10.70
2023-05-20T01:01:07.062Z,10.70
2023-05-20T01:03:34.620Z,10.70
2023-05-20T01:06:02.779Z,10.70
2023-05-20T01:08:30.167Z,10.70
2023-05-20T01:11:26.607Z,10.70
2023-05-20T01:13:58.688Z,10.60
2023-05-20T01:16:26.430Z,10.50
2023-05-20T01:18:57.674Z,10.50
2023-05-20T01:21:25.327Z,10.40
2023-05-20T01:23:52.645Z,10.40
2023-05-20T01:26:22.040Z,10.30
2023-05-20T01:28:49.438Z,10.30
2023-05-20T01:31:28.063Z,10.20
2023-05-20T01:33:59.887Z,10.20
2023-05-20T01:36:29.053Z,10.20
2023-05-20T01:38:57.830Z,10.20
2023-05-20T01:41:27.383Z,10.20
2023-05-20T01:43:55.720Z,10.20
2023-05-20T01:46:23.169Z,10.10
2023-05-20T01:48:50.416Z,10.20
2023-05-20T01:51:18.096Z,10.10
2023-05-20T01:53:45.393Z,10.10
2023-05-20T01:56:12.771Z,10.10
2023-05-20T01:58:40.010Z,10.00
2023-05-20T02:01:07.374Z,10.00
2023-05-20T02:03:34.804Z,9.90
2023-05-20T02:06:02.268Z,9.90
2023-05-20T02:08:30.566Z,9.80
2023-05-20T02:10:57.901Z,9.80
2023-05-20T02:13:25.365Z,9.80
2023-05-20T02:15:52.556Z,9.70
2023-05-20T02:18:20.556Z,9.70
2023-05-20T02:20:48.026Z,9.60
2023-05-20T02:23:15.416Z,9.70
2023-05-20T02:25:43.643Z,9.60
2023-05-20T02:28:11.239Z,9.70
2023-05-20T02:30:39.377Z,9.70
2023-05-20T02:33:07.364Z,9.70
2023-05-20T02:35:35.029Z,9.70
2023-05-20T02:38:02.514Z,9.70
2023-05-20T02:40:29.766Z,9.70
2023-05-20T02:42:57.144Z,9.70
2023-05-20T02:45:24.313Z,9.60
2023-05-20T02:47:51.595Z,9.60
2023-05-20T02:50:18.899Z,9.50
2023-05-20T02:52:46.488Z,9.50
2023-05-20T02:55:14.062Z,9.60
2023-05-20T02:57:41.302Z,9.60
2023-05-20T03:00:13.674Z,9.50
2023-05-20T03:02:41.201Z,9.50
2023-05-20T03:05:08.915Z,9.50
2023-05-20T03:07:36.708Z,9.50
2023-05-20T03:10:05.163Z,9.50
2023-05-20T03:12:32.486Z,9.50
2023-05-20T03:15:00.629Z,9.50
2023-05-20T03:17:28.031Z,9.50
2023-05-20T03:19:55.419Z,9.50
2023-05-20T03:22:22.858Z,9.50
2023-05-20T03:24:50.160Z,9.50
2023-05-20T03:27:17.531Z,9.40
2023-05-20T03:29:45.133Z,9.40
2023-05-20T03:32:12.531Z,9.40
2023-05-20T03:34:39.699Z,9.40
2023-05-20T03:37:07.130Z,9.40
2023-05-20T03:39:34.351Z,9.40
2023-05-20T03:42:02.113Z,9.40
2023-05-20T03:44:29.376Z,9.40
2023-05-20T03:46:56.837Z,9.40
2023-05-20T03:49:24.369Z,9.30
2023-05-20T03:51:51.484Z,9.40
2023-05-20T03:54:18.649Z,9.40
2023-05-20T03:56:47.327Z,9.40
2023-05-20T03:59:14.503Z,9.40
2023-05-20T04:01:41.675Z,9.40
2023-05-20T04:04:09.152Z,9.30
2023-05-20T04:06:36.401Z,9.40
2023-05-20T04:09:04.292Z,9.40
2023-05-20T04:11:31.446Z,9.40
2023-05-20T04:14:01.354Z,9.40
2023-05-20T04:16:30.068Z,9.50
2023-05-20T04:18:59.518Z,9.50
2023-05-20T04:21:26.858Z,9.50
2023-05-20T04:23:54.100Z,9.60
2023-05-20T04:26:21.533Z,9.60
2023-05-20T04:28:52.154Z,9.70
2023-05-20T04:31:21.400Z,9.70
2023-05-20T04:33:48.677Z,9.80
2023-05-20T04:36:16.742Z,9.80
2023-05-20T04:38:45.069Z,9.90
2023-05-20T04:41:12.471Z,9.90
2023-05-20T04:43:40.532Z,9.90
2023-05-20T04:46:08.015Z,10.00
2023-05-20T04:48:35.503Z,10.10
2023-05-20T04:51:03.609Z,10.10
2023-05-20T04:53:30.985Z,10.20
2023-05-20T04:55:58.508Z,10.20
2023-05-20T04:58:26.175Z,10.20
2023-05-20T05:00:53.728Z,10.30
2023-05-20T05:03:20.914Z,10.30
2023-05-20T05:05:48.401Z,10.40
2023-05-20T05:08:15.680Z,10.40
2023-05-20T05:10:43.014Z,10.50
2023-05-20T05:13:10.847Z,10.50
2023-05-20T05:15:38.116Z,10.50
2023-05-20T05:18:05.367Z,10.60
2023-05-20T05:20:32.853Z,10.60
2023-05-20T05:23:00.227Z,10.70
2023-05-20T05:25:27.502Z,10.70
2023-05-20T05:27:55.684Z,10.80
2023-05-20T05:30:22.865Z,10.90
2023-05-20T05:32:50.452Z,11.00
2023-05-20T05:35:19.122Z,11.10
2023-05-20T05:37:46.381Z,11.10
2023-05-20T05:40:13.925Z,11.20
2023-05-20T05:42:41.422Z,11.30
2023-05-20T05:45:09.523Z,11.40
2023-05-20T05:47:37.182Z,11.50
2023-05-20T05:50:04.563Z,11.60
2023-05-20T05:52:31.733Z,11.70
2023-05-20T05:54:58.932Z,11.90
2023-05-20T05:57:26.450Z,12.00
2023-05-20T05:59:53.753Z,12.10
2023-05-20T06:02:21.787Z,12.20
2023-05-20T06:04:49.000Z,12.30
2023-05-20T06:07:16.275Z,12.40
2023-05-20T06:09:43.442Z,12.50
2023-05-20T06:12:13.271Z,12.60
2023-05-20T06:14:41.273Z,12.70
2023-05-20T06:17:08.957Z,12.80
2023-05-20T06:19:36.451Z,12.90
2023-05-20T06:22:04.110Z,13.00
2023-05-20T06:24:31.254Z,13.10
2023-05-20T06:26:58.519Z,13.20
2023-05-20T06:29:25.783Z,13.20
2023-05-20T06:31:53.057Z,13.30
2023-05-20T06:34:20.194Z,13.40
2023-05-20T06:36:47.512Z,13.40
2023-05-20T06:39:14.681Z,13.50
2023-05-20T06:41:41.996Z,13.60
2023-05-20T06:44:09.143Z,13.70
2023-05-20T06:46:36.630Z,13.80
2023-05-20T06:49:03.933Z,13.80
2023-05-20T06:51:31.288Z,13.90
2023-05-20T06:53:58.541Z,14.00
2023-05-20T06:56:25.945Z,14.00
2023-05-20T06:58:53.344Z,14.10
2023-05-20T07:01:20.644Z,14.10
2023-05-20T07:03:48.191Z,14.20
2023-05-20T07:06:15.401Z,14.20
2023-05-20T07:08:42.715Z,14.30
2023-05-20T07:11:10.050Z,14.30
2023-05-20T07:13:38.447Z,14.30
2023-05-20T07:16:06.188Z,14.40
2023-05-20T07:18:33.569Z,14.40
2023-05-20T07:21:00.826Z,14.50
2023-05-20T07:23:28.002Z,14.60
2023-05-20T07:25:55.046Z,14.60
2023-05-20T07:28:23.092Z,14.70
2023-05-20T07:30:50.792Z,14.70
2023-05-20T07:33:18.398Z,14.70
2023-05-20T07:35:46.545Z,14.70
2023-05-20T07:38:13.740Z,14.70
2023-05-20T07:40:42.389Z,14.80
2023-05-20T07:43:09.851Z,14.80
2023-05-20T07:45:37.616Z,14.80
2023-05-20T07:48:05.977Z,14.80
2023-05-20T07:50:34.655Z,14.90
2023-05-20T07:53:02.125Z,14.90
2023-05-20T07:55:29.460Z,14.90
2023-05-20T07:57:56.726Z,15.00
2023-05-20T08:00:24.472Z,15.00
2023-05-20T08:02:52.383Z,15.10
2023-05-20T08:05:19.797Z,15.10
2023-05-20T08:07:47.194Z,15.10
2023-05-20T08:10:14.484Z,15.10
2023-05-20T08:12:41.778Z,15.30
2023-05-20T08:15:09.588Z,15.40
2023-05-20T08:17:37.052Z,15.40
2023-05-20T08:20:04.994Z,15.40
2023-05-20T08:22:32.073Z,15.50
2023-05-20T08:24:59.309Z,15.50
2023-05-20T08:27:26.567Z,15.50
2023-05-20T08:29:53.830Z,15.50
2023-05-20T08:32:21.348Z,15.60
2023-05-20T08:34:49.579Z,15.60
2023-05-20T08:37:17.568Z,15.70
2023-05-20T08:39:46.883Z,15.90
2023-05-20T08:42:14.169Z,16.00
2023-05-20T08:44:42.362Z,16.10
2023-05-20T08:47:10.668Z,16.20
2023-05-20T08:49:38.899Z,16.30
2023-05-20T08:52:09.036Z,16.40
2023-05-20T08:54:54.784Z,16.40
2023-05-20T08:57:22.496Z,16.40
2023-05-20T08:59:52.408Z,16.50
2023-05-20T09:02:19.800Z,16.50
2023-05-20T09:04:47.022Z,16.60
2023-05-20T09:07:28.362Z,16.80
2023-05-20T09:09:55.571Z,17.00
2023-05-20T09:12:22.735Z,17.00
2023-05-20T09:14:50.675Z,17.00
2023-05-20T09:17:20.871Z,16.90
2023-05-20T09:19:52.054Z,16.90
2023-05-20T09:22:29.878Z,16.90
2023-05-20T09:24:57.095Z,16.80
2023-05-20T09:27:24.978Z,16.90
2023-05-20T09:29:52.569Z,16.80
2023-05-20T09:32:24.418Z,16.70
2023-05-20T09:34:51.654Z,16.60
2023-05-20T09:37:21.845Z,16.60
2023-05-20T09:39:58.333Z,16.70
2023-05-20T09:42:42.686Z,16.80
2023-05-20T09:45:10.897Z,16.80
2023-05-20T09:47:42.514Z,16.80
2023-05-20T09:50:11.036Z,16.80
2023-05-20T09:52:39.545Z,16.80
2023-05-20T09:55:07.697Z,16.80
2023-05-20T09:57:36.368Z,16.70
2023-05-20T10:00:06.354Z,16.70
2023-05-20T10:02:37.181Z,16.70
2023-05-20T10:05:07.707Z,16.80
2023-05-20T10:07:44.264Z,16.80
2023-05-20T10:10:30.614Z,16.80
2023-05-20T10:13:25.563Z,16.90
2023-05-20T10:16:20.769Z,16.90
2023-05-20T10:19:26.142Z,16.90
2023-05-20T10:22:03.682Z,16.90
2023-05-20T10:24:32.892Z,16.90
2023-05-20T10:27:03.178Z,16.90
2023-05-20T10:29:30.843Z,16.90
2023-05-20T10:31:58.146Z,16.90
2023-05-20T10:34:25.573Z,17.00
2023-05-20T10:36:56.071Z,16.90
2023-05-20T10:39:30.571Z,16.80
2023-05-20T10:42:16.149Z,16.80
2023-05-20T10:44:45.025Z,16.80
2023-05-20T10:49:47.755Z,16.70
2023-05-20T10:52:23.245Z,16.70
2023-05-20T10:55:01.268Z,16.70
2023-05-20T10:57:29.706Z,16.60
2023-05-20T10:59:57.629Z,16.50
2023-05-20T11:02:29.269Z,16.50
2023-05-20T11:04:59.840Z,16.60
2023-05-20T11:07:31.704Z,16.60
2023-05-20T11:09:59.760Z,16.70
2023-05-20T11:12:28.285Z,16.70
2023-05-20T11:14:55.912Z,16.80
2023-05-20T11:17:23.182Z,17.00
2023-05-20T11:19:51.588Z,17.10
2023-05-20T11:22:18.779Z,17.20
2023-05-20T11:24:47.304Z,17.20
2023-05-20T11:27:14.877Z,17.10
2023-05-20T11:29:46.445Z,17.00
2023-05-20T11:32:14.430Z,16.90
2023-05-20T11:34:42.859Z,16.90
2023-05-20T11:37:11.859Z,16.80
2023-05-20T11:39:39.562Z,16.90
2023-05-20T11:42:06.815Z,16.90
2023-05-20T11:44:34.519Z,16.90
2023-05-20T11:47:03.743Z,17.00
2023-05-20T11:49:39.416Z,17.10
2023-05-20T11:52:09.688Z,17.10
2023-05-20T11:54:36.943Z,17.10
2023-05-20T11:57:05.734Z,17.10
2023-05-20T11:59:34.314Z,17.00
2023-05-20T12:02:01.571Z,17.00
2023-05-20T12:04:28.898Z,16.90
2023-05-20T12:06:56.298Z,16.90
2023-05-20T12:09:23.840Z,16.90
2023-05-20T12:11:51.202Z,16.90
2023-05-20T12:14:18.339Z,17.00
2023-05-20T12:16:45.681Z,17.00
2023-05-20T12:19:13.185Z,17.00
2023-05-20T12:21:40.723Z,17.00
2023-05-20T12:24:08.825Z,17.00
2023-05-20T12:26:36.209Z,17.00
2023-05-20T12:29:03.692Z,17.00
2023-05-20T12:31:33.824Z,17.10
2023-05-20T12:34:02.444Z,17.10
2023-05-20T12:36:29.875Z,17.10
2023-05-20T12:38:57.099Z,17.10
2023-05-20T12:41:24.640Z,17.10
2023-05-20T12:43:51.843Z,17.20
2023-05-20T12:46:19.353Z,17.20
2023-05-20T12:48:47.096Z,17.30
2023-05-20T12:51:14.365Z,17.30
2023-05-20T12:53:41.732Z,17.30
2023-05-20T12:56:09.211Z,17.30
2023-05-20T12:58:36.418Z,17.30
2023-05-20T13:01:03.760Z,17.20
2023-05-20T13:03:31.390Z,17.20
2023-05-20T13:05:59.642Z,17.10
2023-05-20T13:08:28.751Z,17.10
2023-05-20T13:10:56.690Z,17.10
2023-05-20T13:13:26.277Z,17.10
2023-05-20T13:15:53.584Z,17.10
2023-05-20T13:18:20.975Z,17.20
2023-05-20T13:20:48.517Z,17.20
2023-05-20T13:23:16.275Z,17.20
2023-05-20T13:25:44.718Z,17.20
2023-05-20T13:28:16.889Z,17.20
2023-05-20T13:30:44.369Z,17.20
2023-05-20T13:33:12.003Z,17.30
2023-05-20T13:35:39.192Z,17.30
2023-05-20T13:38:06.588Z,17.30
2023-05-20T13:40:34.575Z,17.20
2023-05-20T13:43:02.197Z,17.20
2023-05-20T13:45:30.012Z,17.30
2023-05-20T13:47:57.204Z,17.30
2023-05-20T13:50:24.461Z,17.30
2023-05-20T13:52:52.091Z,17.30
2023-05-20T13:55:19.368Z,17.30
2023-05-20T13:57:46.890Z,17.30
2023-05-20T14:00:15.039Z,17.40
2023-05-20T14:02:42.882Z,17.40
2023-05-20T14:05:10.404Z,17.30
2023-05-20T14:07:38.415Z,17.30
2023-05-20T14:10:07.121Z,17.30
2023-05-20T14:12:34.457Z,17.30
2023-05-20T14:15:01.998Z,17.20
2023-05-20T14:17:38.462Z,17.30
2023-05-20T14:20:06.536Z,17.30
2023-05-20T14:22:33.916Z,17.20
2023-05-20T14:25:01.328Z,17.10
2023-05-20T14:27:29.681Z,17.10
2023-05-20T14:29:56.866Z,17.00
2023-05-20T14:32:24.618Z,17.00
2023-05-20T14:34:54.128Z,17.00
2023-05-20T14:37:24.914Z,17.00
2023-05-20T14:39:54.574Z,17.00
2023-05-20T14:42:22.260Z,17.00
2023-05-20T14:44:52.094Z,17.00
2023-05-20T14:47:22.467Z,17.00
2023-05-20T14:49:51.979Z,17.10
2023-05-20T14:52:20.082Z,17.20
2023-05-20T14:54:47.534Z,17.20
2023-05-20T14:57:17.661Z,17.20
2023-05-20T14:59:45.074Z,17.20
2023-05-20T15:02:15.413Z,17.20
2023-05-20T15:04:45.473Z,17.30
2023-05-20T15:07:12.953Z,17.30
2023-05-20T15:09:40.342Z,17.40
2023-05-20T15:12:08.192Z,17.40
2023-05-20T15:14:35.339Z,17.30
2023-05-20T15:17:02.663Z,17.40
2023-05-20T15:19:31.506Z,17.40
2023-05-20T15:21:59.604Z,17.40
2023-05-20T15:24:26.959Z,17.30
2023-05-20T15:26:55.318Z,17.30
2023-05-20T15:29:23.116Z,17.20
2023-05-20T15:31:50.532Z,17.20
2023-05-20T15:34:18.809Z,17.20
2023-05-20T15:36:46.145Z,17.20
2023-05-20T15:39:13.537Z,17.10
2023-05-20T15:41:42.570Z,17.10
2023-05-20T15:44:10.062Z,17.00
2023-05-20T15:46:37.439Z,17.00
2023-05-20T15:49:04.966Z,17.00
2023-05-20T15:51:32.323Z,17.00
2023-05-20T15:53:59.570Z,17.10
2023-05-20T15:56:26.768Z,17.10
2023-05-20T15:58:53.951Z,17.10
2023-05-20T16:01:23.056Z,17.10
2023-05-20T16:03:50.572Z,17.10
2023-05-20T16:06:18.185Z,17.20
2023-05-20T16:08:45.346Z,17.20
2023-05-20T16:11:15.226Z,17.20
2023-05-20T16:13:42.683Z,17.20
2023-05-20T16:16:10.102Z,17.30
2023-05-20T16:18:39.882Z,17.30
2023-05-20T16:21:08.190Z,17.30
2023-05-20T16:23:35.461Z,17.30
2023-05-20T16:26:03.383Z,17.30
2023-05-20T16:28:30.868Z,17.30
2023-05-20T16:30:58.852Z,17.30
2023-05-20T16:33:26.253Z,17.20
2023-05-20T16:35:53.555Z,17.20
2023-05-20T16:38:20.860Z,17.20
2023-05-20T16:40:48.364Z,17.30
2023-05-20T16:43:15.725Z,17.20
2023-05-20T16:45:43.136Z,17.20
2023-05-20T16:48:11.503Z,17.30
2023-05-20T16:50:38.946Z,17.30
2023-05-20T16:53:06.077Z,17.20
2023-05-20T16:55:33.389Z,17.20
2023-05-20T16:58:01.294Z,17.20
2023-05-20T17:00:28.691Z,17.10
2023-05-20T17:02:56.140Z,17.10
2023-05-20T17:05:26.411Z,17.10
2023-05-20T17:07:55.971Z,17.10
2023-05-20T17:10:23.269Z,17.10
2023-05-20T17:12:50.551Z,17.10
2023-05-20T17:15:17.920Z,17.10
2023-05-20T17:17:45.232Z,17.20
2023-05-20T17:20:12.950Z,17.20
2023-05-20T17:22:40.360Z,17.20
2023-05-20T17:25:08.239Z,17.20
2023-05-20T17:27:35.659Z,17.20
2023-05-20T17:30:02.890Z,17.10
2023-05-20T17:32:30.534Z,17.20
2023-05-20T17:34:58.009Z,17.10
2023-05-20T17:37:25.233Z,17.10
2023-05-20T17:39:52.536Z,17.10
2023-05-20T17:42:19.862Z,17.10
2023-05-20T17:44:46.931Z,17.10
2023-05-20T17:47:14.236Z,17.10
2023-05-20T17:49:41.649Z,17.10
2023-05-20T17:52:08.816Z,17.10
2023-05-20T17:54:36.149Z,17.10
2023-05-20T17:57:03.331Z,17.00
2023-05-20T17:59:34.068Z,17.00
2023-05-20T18:02:01.520Z,17.00
2023-05-20T18:04:28.900Z,17.00
2023-05-20T18:06:56.301Z,16.90
2023-05-20T18:09:23.575Z,16.90
2023-05-20T18:11:50.992Z,16.90
2023-05-20T18:14:22.044Z,16.90
2023-05-20T18:16:49.617Z,16.80
2023-05-20T18:19:17.110Z,16.80
2023-05-20T18:21:44.825Z,16.80
2023-05-20T18:24:12.280Z,16.80
2023-05-20T18:26:39.723Z,16.80
2023-05-20T18:29:07.175Z,16.80
2023-05-20T18:31:34.757Z,16.70
2023-05-20T18:34:02.362Z,16.80
2023-05-20T18:36:30.678Z,16.70
2023-05-20T18:38:58.082Z,16.70
2023-05-20T18:41:32.379Z,16.60
2023-05-20T18:44:13.075Z,16.60
2023-05-20T18:46:40.775Z,16.50
2023-05-20T18:49:08.071Z,16.50
2023-05-20T18:51:35.143Z,16.50
2023-05-20T18:54:02.668Z,16.40
2023-05-20T18:56:30.122Z,16.40
2023-05-20T18:58:57.409Z,16.40
2023-05-20T19:01:24.709Z,16.30
2023-05-20T19:03:52.058Z,16.30
2023-05-20T19:06:19.579Z,16.20
2023-05-20T19:08:46.888Z,16.20
2023-05-20T19:11:14.313Z,16.20
2023-05-20T19:13:41.918Z,16.20
2023-05-20T19:16:09.498Z,16.10
2023-05-20T19:18:36.785Z,16.10
2023-05-20T19:21:04.022Z,16.10
2023-05-20T19:23:32.708Z,16.00
2023-05-20T19:25:59.891Z,16.00
2023-05-20T19:28:27.178Z,16.00
2023-05-20T19:30:54.669Z,15.90
2023-05-20T19:33:22.238Z,15.90
2023-05-20T19:35:49.388Z,15.80
2023-05-20T19:38:17.095Z,15.80
2023-05-20T19:40:45.260Z,15.80
2023-05-20T19:43:12.453Z,15.80
2023-05-20T19:45:39.918Z,15.80
2023-05-20T19:48:08.069Z,15.70
2023-05-20T19:50:35.783Z,15.70
2023-05-20T19:53:06.973Z,15.60
2023-05-20T19:55:41.810Z,15.60
2023-05-20T19:58:10.086Z,15.50
2023-05-20T20:00:40.048Z,15.50
2023-05-20T20:03:07.721Z,15.50
2023-05-20T20:05:35.318Z,15.40
2023-05-20T20:08:03.023Z,15.40
2023-05-20T20:10:31.280Z,15.30
2023-05-20T20:12:58.589Z,15.30
2023-05-20T20:15:27.599Z,15.30
2023-05-20T20:17:55.002Z,15.30
2023-05-20T20:20:23.774Z,15.20
2023-05-20T20:22:51.208Z,15.20
2023-05-20T20:25:18.889Z,15.10
2023-05-20T20:27:46.291Z,15.10
2023-05-20T20:30:14.626Z,15.00
2023-05-20T20:32:42.773Z,15.00
2023-05-20T20:35:11.259Z,15.00
2023-05-20T20:37:38.950Z,15.00
2023-05-20T20:40:08.321Z,15.00
2023-05-20T20:42:35.476Z,15.00
2023-05-20T20:45:04.534Z,15.00
2023-05-20T20:47:31.643Z,15.00
2023-05-20T20:49:59.087Z,15.00
2023-05-20T20:52:26.858Z,15.00
2023-05-20T20:54:54.231Z,15.00
2023-05-20T20:57:22.597Z,15.00
2023-05-20T20:59:50.878Z,14.90
2023-05-20T21:02:19.787Z,14.90
2023-05-20T21:04:47.645Z,14.80
2023-05-20T21:07:18.655Z,14.80
2023-05-20T21:09:46.715Z,14.80
2023-05-20T21:12:14.030Z,14.80
2023-05-20T21:14:44.914Z,14.70
2023-05-20T21:17:12.381Z,14.70
2023-05-20T21:19:39.676Z,14.70
2023-05-20T21:22:07.236Z,14.60
2023-05-20T21:24:34.397Z,14.60
2023-05-20T21:27:03.076Z,14.60
2023-05-20T21:29:31.598Z,14.60
2023-05-20T21:31:58.984Z,14.60
2023-05-20T21:34:26.159Z,14.60
2023-05-20T21:36:53.370Z,14.50
2023-05-20T21:39:20.499Z,14.60
2023-05-20T21:41:48.121Z,14.50
2023-05-20T21:44:15.686Z,14.50
2023-05-20T21:46:43.083Z,14.50
2023-05-20T21:49:10.324Z,14.50
2023-05-20T21:51:37.701Z,14.50
2023-05-20T21:54:07.307Z,14.40
2023-05-20T21:56:34.492Z,14.30
2023-05-20T21:59:01.876Z,14.30
2023-05-20T22:01:29.277Z,14.30
2023-05-20T22:03:57.050Z,14.30
2023-05-20T22:06:26.239Z,14.20
2023-05-20T22:08:54.226Z,14.20
2023-05-20T22:11:22.036Z,14.10
2023-05-20T22:13:49.270Z,14.10
2023-05-20T22:16:17.041Z,14.10
2023-05-20T22:18:44.822Z,14.00
2023-05-20T22:21:12.532Z,14.00
2023-05-20T22:23:41.286Z,13.90
2023-05-20T22:26:11.089Z,13.90
2023-05-20T22:28:38.298Z,13.80
2023-05-20T22:31:05.648Z,13.80
2023-05-20T22:33:33.053Z,13.70
2023-05-20T22:36:00.359Z,13.70
2023-05-20T22:38:30.321Z,13.70
2023-05-20T22:40:57.704Z,13.60
2023-05-20T22:43:26.788Z,13.50
2023-05-20T22:45:54.105Z,13.50
2023-05-20T22:48:24.630Z,13.50
2023-05-20T22:50:52.042Z,13.40
2023-05-20T22:53:19.295Z,13.40
2023-05-20T22:55:46.672Z,13.40
2023-05-20T22:58:14.176Z,13.30
2023-05-20T23:00:42.191Z,13.30
2023-05-20T23:03:09.683Z,13.30
2023-05-20T23:05:37.148Z,13.30
2023-05-20T23:08:04.808Z,13.20
2023-05-20T23:10:32.092Z,13.20
2023-05-20T23:12:59.226Z,13.20
2023-05-20T23:15:26.600Z,13.10
2023-05-20T23:17:53.933Z,13.10
2023-05-20T23:20:22.565Z,13.00
2023-05-20T23:22:49.948Z,13.00
2023-05-20T23:25:17.226Z,13.00
2023-05-20T23:27:44.692Z,13.00
2023-05-20T23:30:12.204Z,13.00
2023-05-20T23:32:39.533Z,12.90
2023-05-20T23:35:07.803Z,12.90
2023-05-20T23:37:35.103Z,12.90
2023-05-20T23:40:02.386Z,12.90
2023-05-20T23:42:30.606Z,12.80
2023-05-20T23:44:58.165Z,12.80
2023-05-20T23:47:30.231Z,12.80
2023-05-20T23:49:58.241Z,12.80
2023-05-20T23:52:26.745Z,12.70
2023-05-20T23:54:54.126Z,12.70
2023-05-20T23:57:21.345Z,12.70
2023-05-20T23:59:52.095Z,12.70
